Time;durP1;ratioP1;P1;durP2;ratioP2;P2;SDS_P1;SDS_P2;PMS_P1;PMS_P2;Temp;Humidity;BMP_temperature;BMP_pressure;BME280_temperature;BME280_humidity;BME280_pressure;Samples;Min_cycle;Max_cycle;Signal;HPM_P1;HPM_P2
2022/10/23 00:00:29;;;;;;;11.63;8.35;;;11.10;99.90;;;;;;4880035;29;20049;-67
2022/10/23 00:02:55;;;;;;;15.38;8.95;;;11.10;99.90;;;;;;4881261;29;20053;-67
2022/10/23 00:05:22;;;;;;;14.10;9.70;;;11.20;99.90;;;;;;4880084;29;20482;-67
2022/10/23 00:07:56;;;;;;;11.75;9.18;;;11.20;99.90;;;;;;4880474;29;20056;-68
2022/10/23 00:10:24;;;;;;;15.93;10.10;;;11.00;99.90;;;;;;4880950;29;20057;-68
2022/10/23 00:12:51;;;;;;;12.82;8.77;;;11.10;99.90;;;;;;4879583;29;20538;-68
2022/10/23 00:15:19;;;;;;;13.55;9.18;;;11.00;99.90;;;;;;4880712;29;20067;-68
2022/10/23 00:17:45;;;;;;;17.08;9.93;;;11.10;99.90;;;;;;4879695;29;20051;-68
2022/10/23 00:20:12;;;;;;;14.52;10.23;;;11.20;99.90;;;;;;4879588;29;20048;-68
2022/10/23 00:22:37;;;;;;;17.58;10.35;;;11.00;99.90;;;;;;4879303;29;20093;-68
2022/10/23 00:25:06;;;;;;;19.05;10.30;;;11.00;99.90;;;;;;4879637;29;20121;-68
2022/10/23 00:27:32;;;;;;;13.48;9.88;;;11.60;99.90;;;;;;4880365;29;20055;-68
2022/10/23 00:29:58;;;;;;;16.67;11.02;;;11.10;99.90;;;;;;4880446;29;20128;-68
2022/10/23 00:32:24;;;;;;;18.33;10.48;;;11.10;99.90;;;;;;4880637;29;20125;-68
2022/10/23 00:34:50;;;;;;;15.18;11.15;;;11.10;99.90;;;;;;4879234;29;20057;-68
2022/10/23 00:37:15;;;;;;;15.73;10.20;;;11.10;99.90;;;;;;4879713;29;20509;-68
2022/10/23 00:39:41;;;;;;;11.88;9.15;;;11.10;99.90;;;;;;4879597;29;20041;-68
2022/10/23 00:42:09;;;;;;;15.88;10.25;;;11.20;99.90;;;;;;4880320;29;20045;-68
2022/10/23 00:44:35;;;;;;;13.10;10.35;;;11.10;99.90;;;;;;4879446;29;20088;-68
2022/10/23 00:47:01;;;;;;;18.20;10.98;;;11.20;99.90;;;;;;4879214;29;20091;-68
2022/10/23 00:49:27;;;;;;;16.92;11.13;;;11.10;99.90;;;;;;4879178;29;20048;-68
2022/10/23 00:51:58;;;;;;;18.13;10.60;;;11.10;99.90;;;;;;4879842;29;20045;-68
2022/10/23 00:54:26;;;;;;;16.90;11.32;;;11.30;99.90;;;;;;4880512;29;20100;-68
2022/10/23 00:56:55;;;;;;;16.50;10.75;;;11.10;99.90;;;;;;4880037;29;20104;-68
2022/10/23 00:59:21;;;;;;;20.48;11.23;;;11.30;99.90;;;;;;4879996;29;20123;-68
2022/10/23 01:01:47;;;;;;;17.10;11.48;;;11.10;99.90;;;;;;4878746;29;20197;-68
2022/10/23 01:04:13;;;;;;;16.67;11.32;;;11.20;99.90;;;;;;4878547;29;20196;-67
2022/10/23 01:07:01;;;;;;;14.65;10.57;;;11.20;99.90;;;;;;4878754;29;20103;-68
2022/10/23 01:09:37;;;;;;;19.92;11.95;;;11.00;99.90;;;;;;4879023;29;20064;-67
2022/10/23 01:12:45;;;;;;;18.30;11.20;;;11.10;99.90;;;;;;4878834;29;20061;-68
2022/10/23 01:15:19;;;;;;;20.15;12.52;;;11.30;99.90;;;;;;4879694;29;20529;-68
2022/10/23 01:17:55;;;;;;;18.98;11.10;;;11.20;99.90;;;;;;4879001;29;20402;-68
2022/10/23 01:20:44;;;;;;;12.88;10.15;;;11.40;99.90;;;;;;4879737;29;20053;-67
2022/10/23 01:23:51;;;;;;;15.32;10.82;;;11.20;99.90;;;;;;4878795;29;20540;-68
2022/10/23 01:26:35;;;;;;;16.63;10.30;;;11.10;99.90;;;;;;4878832;29;20052;-68
2022/10/23 01:29:21;;;;;;;17.50;11.20;;;11.20;99.90;;;;;;4879504;29;20128;-68
2022/10/23 01:31:58;;;;;;;18.50;10.77;;;11.20;99.90;;;;;;4878376;29;20075;-68
2022/10/23 01:34:39;;;;;;;16.77;11.10;;;11.30;99.90;;;;;;4878428;29;20121;-68
2022/10/23 01:37:10;;;;;;;15.20;10.63;;;11.10;99.90;;;;;;4878889;29;20100;-68
2022/10/23 01:39:40;;;;;;;17.88;10.50;;;11.20;99.90;;;;;;4878186;29;20052;-68
2022/10/23 01:42:15;;;;;;;17.20;11.02;;;11.20;99.90;;;;;;4878163;29;20049;-68
2022/10/23 01:44:41;;;;;;;17.00;10.40;;;11.10;99.90;;;;;;4879352;29;20053;-68
2022/10/23 01:47:08;;;;;;;13.68;10.07;;;11.30;99.90;;;;;;4879298;29;20135;-68
2022/10/23 01:49:38;;;;;;;15.80;10.32;;;11.00;99.90;;;;;;4879177;29;20063;-67
2022/10/23 01:52:07;;;;;;;15.18;9.85;;;11.10;99.90;;;;;;4878007;29;20049;-68
2022/10/23 01:54:37;;;;;;;15.00;10.35;;;11.10;99.90;;;;;;4878108;29;20406;-68
2022/10/23 01:57:04;;;;;;;17.15;11.25;;;11.20;99.90;;;;;;4879047;29;20049;-68
2022/10/23 01:59:35;;;;;;;12.35;9.68;;;11.40;99.90;;;;;;4879293;29;20060;-68
2022/10/23 02:02:03;;;;;;;16.35;9.90;;;11.30;99.90;;;;;;4877901;29;20123;-68
2022/10/23 02:04:34;;;;;;;14.00;10.18;;;11.00;99.90;;;;;;4878976;29;20085;-68
2022/10/23 02:07:00;;;;;;;15.88;10.20;;;11.10;99.90;;;;;;4878130;29;20056;-67
2022/10/23 02:09:26;;;;;;;15.02;9.40;;;11.10;99.90;;;;;;4862800;29;20056;-67
2022/10/23 02:11:58;;;;;;;13.55;9.55;;;11.10;99.90;;;;;;4878751;29;20487;-68
2022/10/23 02:14:42;;;;;;;15.02;9.85;;;11.10;99.90;;;;;;4878052;29;20053;-68
2022/10/23 02:17:27;;;;;;;14.50;10.02;;;11.10;99.90;;;;;;4878774;29;20053;-68
2022/10/23 02:20:01;;;;;;;12.32;8.70;;;11.20;99.90;;;;;;4877930;29;20564;-67
2022/10/23 02:22:37;;;;;;;14.35;8.77;;;11.00;99.90;;;;;;4879088;29;20049;-68
2022/10/23 02:25:21;;;;;;;15.20;8.85;;;11.00;99.90;;;;;;4877974;29;20060;-68
2022/10/23 02:27:52;;;;;;;14.27;9.20;;;11.10;99.90;;;;;;4877654;29;20168;-68
2022/10/23 02:30:19;;;;;;;14.13;10.15;;;11.10;99.90;;;;;;4877997;29;20052;-68
2022/10/23 02:32:48;;;;;;;13.48;9.13;;;11.10;99.90;;;;;;4877972;29;20061;-68
2022/10/23 02:35:15;;;;;;;15.35;9.43;;;10.90;99.90;;;;;;4878774;29;20494;-68
2022/10/23 02:37:41;;;;;;;11.75;8.98;;;11.10;99.90;;;;;;4878379;29;20063;-68
2022/10/23 02:40:08;;;;;;;11.93;8.88;;;11.10;99.90;;;;;;4877442;29;20049;-68
2022/10/23 02:43:22;;;;;;;16.23;10.00;;;11.00;99.90;;;;;;4878553;29;20494;-68
2022/10/23 02:45:58;;;;;;;13.48;9.13;;;11.10;99.90;;;;;;4863650;29;20507;-67
2022/10/23 02:48:34;;;;;;;13.93;9.55;;;11.10;99.90;;;;;;4881435;29;20045;-69
2022/10/23 02:51:04;;;;;;;11.90;8.50;;;11.20;99.90;;;;;;4882532;29;20222;-67
2022/10/23 02:54:02;;;;;;;13.32;9.88;;;11.10;99.90;;;;;;4881291;29;20072;-68
2022/10/23 02:56:47;;;;;;;12.90;9.63;;;11.00;99.90;;;;;;4881626;29;20103;-67
2022/10/23 02:59:33;;;;;;;14.25;9.35;;;11.10;99.90;;;;;;4881902;29;20094;-68
2022/10/23 03:02:07;;;;;;;12.60;9.23;;;11.20;99.90;;;;;;4882528;29;20048;-68
2022/10/23 03:04:34;;;;;;;14.40;9.70;;;11.10;99.90;;;;;;4880974;29;20060;-68
2022/10/23 03:06:59;;;;;;;14.35;10.75;;;10.90;99.90;;;;;;4881656;29;20460;-68
2022/10/23 03:09:26;;;;;;;12.65;8.95;;;11.00;99.90;;;;;;4881806;29;20132;-68
2022/10/23 03:11:51;;;;;;;16.00;8.98;;;11.00;99.90;;;;;;4882179;29;20092;-68
2022/10/23 03:14:18;;;;;;;14.75;9.23;;;11.20;99.90;;;;;;4880683;29;20088;-68
2022/10/23 03:16:44;;;;;;;18.25;11.43;;;11.00;99.90;;;;;;4881783;29;20100;-68
2022/10/23 03:19:10;;;;;;;15.93;10.18;;;11.20;99.90;;;;;;4880943;29;20410;-67
2022/10/23 03:21:36;;;;;;;13.68;8.95;;;11.00;99.90;;;;;;4865134;29;20048;-68
2022/10/23 03:24:02;;;;;;;13.88;9.65;;;11.30;99.90;;;;;;4880474;29;20045;-67
2022/10/23 03:26:28;;;;;;;12.00;8.93;;;11.10;99.90;;;;;;4882097;29;20136;-68
2022/10/23 03:28:53;;;;;;;14.65;10.25;;;11.10;99.90;;;;;;4881658;29;20458;-67
2022/10/23 03:31:19;;;;;;;14.32;9.70;;;11.00;99.90;;;;;;4880401;29;20085;-67
2022/10/23 03:33:45;;;;;;;22.88;10.20;;;11.10;99.90;;;;;;4881474;29;20171;-67
2022/10/23 03:36:10;;;;;;;13.73;9.38;;;11.10;99.90;;;;;;4880360;29;20558;-67
2022/10/23 03:38:36;;;;;;;13.35;9.05;;;11.10;99.90;;;;;;4880688;29;20057;-68
2022/10/23 03:41:02;;;;;;;14.70;10.05;;;11.10;99.90;;;;;;4881730;29;20045;-68
2022/10/23 03:43:28;;;;;;;15.65;9.63;;;11.30;99.90;;;;;;4881898;29;20116;-68
2022/10/23 03:45:55;;;;;;;15.32;10.02;;;11.10;99.90;;;;;;4880665;29;20053;-68
2022/10/23 03:48:22;;;;;;;14.45;10.25;;;11.20;99.90;;;;;;4880566;29;20060;-68
2022/10/23 03:50:48;;;;;;;15.40;10.10;;;11.40;99.90;;;;;;4880611;29;20125;-68
2022/10/23 03:53:14;;;;;;;16.67;10.52;;;11.30;99.90;;;;;;4881370;29;20092;-68
2022/10/23 03:55:40;;;;;;;13.82;10.25;;;11.30;99.90;;;;;;4881694;29;20375;-68
2022/10/23 03:58:05;;;;;;;13.23;9.02;;;11.40;99.90;;;;;;4879933;29;20109;-68
2022/10/23 04:00:31;;;;;;;15.40;10.55;;;11.50;99.90;;;;;;4881028;29;20045;-67
2022/10/23 04:02:56;;;;;;;16.58;10.63;;;11.40;99.90;;;;;;4881053;29;20049;-68
2022/10/23 04:05:22;;;;;;;15.35;9.77;;;11.30;99.90;;;;;;4879886;29;20049;-67
2022/10/23 04:07:48;;;;;;;13.35;9.85;;;11.50;99.90;;;;;;4880472;29;20140;-68
2022/10/23 04:10:13;;;;;;;12.70;9.32;;;11.40;99.90;;;;;;4880315;29;20108;-68
2022/10/23 04:12:39;;;;;;;13.50;9.55;;;11.20;99.90;;;;;;4881029;29;20506;-68
2022/10/23 04:15:05;;;;;;;15.55;9.95;;;11.20;99.90;;;;;;4881227;29;20093;-68
2022/10/23 04:17:31;;;;;;;11.77;9.07;;;11.20;99.90;;;;;;4879541;29;20494;-68
2022/10/23 04:19:56;;;;;;;18.63;9.95;;;11.40;99.90;;;;;;4880683;29;20128;-68
2022/10/23 04:22:22;;;;;;;14.93;10.07;;;11.10;99.90;;;;;;4879258;29;20055;-68
2022/10/23 04:24:48;;;;;;;15.82;9.88;;;11.10;99.90;;;;;;4879808;29;20052;-68
2022/10/23 04:27:13;;;;;;;16.42;8.98;;;11.50;99.90;;;;;;4879707;29;20053;-68
2022/10/23 04:29:39;;;;;;;12.52;8.63;;;11.30;99.90;;;;;;4880536;29;20057;-68
2022/10/23 04:32:06;;;;;;;12.68;9.60;;;11.00;99.90;;;;;;4879945;29;20072;-68
2022/10/23 04:34:32;;;;;;;12.13;8.52;;;11.30;99.90;;;;;;4880608;29;20040;-68
2022/10/23 04:36:58;;;;;;;13.07;8.90;;;11.10;99.90;;;;;;4879028;29;20623;-68
2022/10/23 04:39:23;;;;;;;16.13;10.00;;;11.20;99.90;;;;;;4880487;29;20049;-68
2022/10/23 04:41:49;;;;;;;17.20;10.10;;;11.00;99.90;;;;;;4863787;29;20045;-68
2022/10/23 04:44:15;;;;;;;16.58;9.40;;;11.00;99.90;;;;;;4880409;29;20135;-68
2022/10/23 04:46:40;;;;;;;15.35;9.85;;;11.00;99.90;;;;;;4879059;29;20060;-68
2022/10/23 04:49:06;;;;;;;14.35;9.85;;;11.00;99.90;;;;;;4863885;29;20052;-68
2022/10/23 04:51:32;;;;;;;15.07;10.23;;;11.00;99.90;;;;;;4879842;29;20053;-68
2022/10/23 04:53:58;;;;;;;14.43;10.45;;;11.00;99.90;;;;;;4880272;29;20055;-68
2022/10/23 04:56:24;;;;;;;19.17;10.48;;;11.00;99.90;;;;;;4879211;29;20098;-68
2022/10/23 04:58:51;;;;;;;14.23;10.18;;;11.10;99.90;;;;;;4878949;29;20053;-68
2022/10/23 05:01:17;;;;;;;17.33;9.63;;;11.10;99.90;;;;;;4878716;29;20087;-69
2022/10/23 05:03:43;;;;;;;15.57;11.25;;;11.00;99.90;;;;;;4878819;29;20088;-68
2022/10/23 05:06:08;;;;;;;16.45;10.85;;;11.10;99.90;;;;;;4879670;29;20056;-68
2022/10/23 05:08:34;;;;;;;16.00;11.02;;;11.00;99.90;;;;;;4878793;29;20071;-68
2022/10/23 05:11:00;;;;;;;19.77;10.93;;;11.10;99.90;;;;;;4879881;29;20061;-68
2022/10/23 05:13:26;;;;;;;13.57;9.40;;;11.00;99.90;;;;;;4878899;29;20052;-68
2022/10/23 05:15:52;;;;;;;17.02;10.50;;;11.00;99.90;;;;;;4878839;29;20057;-68
2022/10/23 05:18:30;;;;;;;15.23;10.70;;;11.00;99.90;;;;;;4878708;29;20502;-68
2022/10/23 05:21:08;;;;;;;16.80;10.88;;;11.10;99.90;;;;;;4878406;29;20063;-68
2022/10/23 05:23:35;;;;;;;15.70;11.43;;;11.10;99.90;;;;;;4879775;29;20056;-68
2022/10/23 05:26:02;;;;;;;17.20;11.40;;;11.40;99.90;;;;;;4879500;29;20510;-68
2022/10/23 05:28:28;;;;;;;17.90;12.45;;;11.10;99.90;;;;;;4878572;29;20084;-68
2022/10/23 05:30:54;;;;;;;19.10;11.77;;;11.20;99.90;;;;;;4879379;29;20053;-68
2022/10/23 05:33:20;;;;;;;16.83;11.45;;;11.10;99.90;;;;;;4862822;29;20097;-68
2022/10/23 05:35:46;;;;;;;17.20;11.15;;;11.30;99.90;;;;;;4878163;29;20048;-68
2022/10/23 05:38:12;;;;;;;16.65;11.52;;;11.10;99.90;;;;;;4862651;29;20049;-68
2022/10/23 05:40:38;;;;;;;16.75;10.98;;;11.10;99.90;;;;;;4878312;29;20108;-68
2022/10/23 05:43:04;;;;;;;19.23;10.75;;;11.20;99.90;;;;;;4879364;29;20135;-68
2022/10/23 05:45:29;;;;;;;19.55;11.10;;;11.10;99.90;;;;;;4878240;29;20057;-68
2022/10/23 05:47:55;;;;;;;15.00;10.40;;;11.30;99.90;;;;;;4879206;29;20143;-68
2022/10/23 05:50:21;;;;;;;17.88;12.10;;;11.30;99.90;;;;;;4863061;29;20093;-68
2022/10/23 05:52:47;;;;;;;14.27;10.40;;;11.20;99.90;;;;;;4878528;29;20080;-68
2022/10/23 05:55:14;;;;;;;18.83;11.95;;;11.10;99.90;;;;;;4878036;29;20045;-68
2022/10/23 05:57:40;;;;;;;17.13;11.20;;;11.10;99.90;;;;;;4879213;29;20057;-68
2022/10/23 06:00:06;;;;;;;15.82;10.80;;;11.10;99.90;;;;;;4878069;29;20494;-68
2022/10/23 06:02:33;;;;;;;19.08;11.63;;;11.10;99.90;;;;;;4878775;29;20045;-68
2022/10/23 06:04:58;;;;;;;17.20;11.30;;;11.10;99.90;;;;;;4878555;29;20116;-68
2022/10/23 06:07:28;;;;;;;20.25;11.98;;;11.20;99.90;;;;;;4878467;29;20061;-68
2022/10/23 06:09:54;;;;;;;16.85;10.80;;;11.10;99.90;;;;;;4878322;29;20088;-68
2022/10/23 06:12:21;;;;;;;19.90;11.32;;;11.20;99.90;;;;;;4879017;29;20092;-68
2022/10/23 06:14:47;;;;;;;18.08;10.90;;;11.10;99.90;;;;;;4879031;29;20053;-68
2022/10/23 06:17:13;;;;;;;15.75;10.68;;;11.10;99.90;;;;;;4877505;29;20053;-68
2022/10/23 06:19:39;;;;;;;16.48;10.23;;;11.10;99.90;;;;;;4879052;29;20427;-68
2022/10/23 06:22:05;;;;;;;21.63;11.65;;;11.30;99.90;;;;;;4881669;29;20049;-68
2022/10/23 06:24:31;;;;;;;15.43;10.73;;;11.30;99.90;;;;;;4882779;29;20049;-68
2022/10/23 06:26:57;;;;;;;19.85;12.57;;;11.00;99.90;;;;;;4881676;29;20120;-68
2022/10/23 06:29:22;;;;;;;17.42;10.93;;;11.00;99.90;;;;;;4881679;29;20121;-68
2022/10/23 06:31:48;;;;;;;18.23;11.50;;;11.10;99.90;;;;;;4881336;29;20072;-68
2022/10/23 06:34:14;;;;;;;21.42;11.80;;;11.10;99.90;;;;;;4881704;29;20498;-68
2022/10/23 06:36:40;;;;;;;17.38;11.70;;;11.10;99.90;;;;;;4882165;29;20113;-68
2022/10/23 06:39:07;;;;;;;21.90;11.77;;;11.10;99.90;;;;;;4881474;29;20450;-67
2022/10/23 06:41:32;;;;;;;17.85;10.82;;;11.30;99.90;;;;;;4865859;29;20136;-67
2022/10/23 06:43:58;;;;;;;19.60;11.15;;;11.20;99.90;;;;;;4881132;29;20101;-67
2022/10/23 06:46:25;;;;;;;16.90;10.48;;;11.00;99.90;;;;;;4882242;29;20072;-67
2022/10/23 06:48:52;;;;;;;16.40;11.73;;;11.30;99.90;;;;;;4866142;29;20053;-67
2022/10/23 06:51:18;;;;;;;17.30;10.40;;;11.10;99.90;;;;;;4882633;29;20136;-67
2022/10/23 06:53:44;;;;;;;15.68;10.00;;;11.20;99.90;;;;;;4881626;29;20487;-67
2022/10/23 06:56:11;;;;;;;16.00;10.20;;;11.20;99.90;;;;;;4882700;29;20382;-68
2022/10/23 06:58:38;;;;;;;16.27;10.02;;;11.20;99.90;;;;;;4881968;29;20048;-68
2022/10/23 07:01:06;;;;;;;14.70;10.85;;;11.20;99.90;;;;;;4882169;29;20049;-67
2022/10/23 07:03:33;;;;;;;16.02;9.13;;;11.20;99.90;;;;;;4881829;29;20052;-68
2022/10/23 07:06:04;;;;;;;13.88;9.82;;;11.40;99.90;;;;;;4882027;29;20053;-67
2022/10/23 07:08:30;;;;;;;15.52;9.52;;;11.20;99.90;;;;;;4881177;29;20073;-68
2022/10/23 07:10:57;;;;;;;16.13;9.43;;;11.40;99.90;;;;;;4881818;29;20049;-67
2022/10/23 07:13:23;;;;;;;14.90;8.60;;;11.30;99.90;;;;;;4880309;29;20097;-68
2022/10/23 07:15:50;;;;;;;16.00;9.23;;;11.30;99.90;;;;;;4880569;29;20136;-67
2022/10/23 07:18:15;;;;;;;14.75;8.75;;;11.30;99.90;;;;;;4882019;29;20049;-67
2022/10/23 07:20:42;;;;;;;16.10;9.10;;;11.50;99.90;;;;;;4880262;29;20516;-67
2022/10/23 07:23:09;;;;;;;12.68;8.95;;;11.40;99.90;;;;;;4881186;29;20108;-67
2022/10/23 07:25:36;;;;;;;13.68;8.52;;;11.50;99.90;;;;;;4880175;29;20104;-67
2022/10/23 07:28:03;;;;;;;14.27;8.73;;;11.40;99.90;;;;;;4882054;29;20071;-67
2022/10/23 07:30:29;;;;;;;14.20;8.43;;;11.40;99.90;;;;;;4881960;29;20105;-67
2022/10/23 07:32:55;;;;;;;15.88;8.70;;;11.40;99.90;;;;;;4864659;29;20053;-67
2022/10/23 07:35:20;;;;;;;13.45;8.38;;;11.50;99.90;;;;;;4865162;29;20092;-67
2022/10/23 07:37:47;;;;;;;14.48;8.95;;;11.40;99.90;;;;;;4865117;29;20049;-67
2022/10/23 07:40:13;;;;;;;15.07;8.48;;;11.50;99.90;;;;;;4880388;29;20104;-67
2022/10/23 07:42:39;;;;;;;12.52;8.23;;;11.70;99.90;;;;;;4881210;29;20045;-67
2022/10/23 07:45:06;;;;;;;11.38;7.50;;;11.60;99.90;;;;;;4881594;29;20390;-68
2022/10/23 07:47:32;;;;;;;14.45;8.82;;;11.70;99.90;;;;;;4880961;29;20413;-68
2022/10/23 07:49:58;;;;;;;12.30;7.95;;;11.90;99.90;;;;;;4880367;29;20048;-67
2022/10/23 07:52:24;;;;;;;12.85;8.18;;;11.70;99.90;;;;;;4880224;29;20049;-69
2022/10/23 07:54:52;;;;;;;14.20;7.93;;;11.60;99.90;;;;;;4881449;29;20064;-68
2022/10/23 07:57:19;;;;;;;10.65;7.22;;;11.70;99.90;;;;;;4881472;29;20060;-68
2022/10/23 07:59:44;;;;;;;9.63;7.50;;;11.80;99.90;;;;;;4880431;29;20057;-68
2022/10/23 08:02:12;;;;;;;11.50;8.18;;;11.80;99.90;;;;;;4865048;29;20110;-68
2022/10/23 08:04:38;;;;;;;12.57;7.22;;;11.80;99.90;;;;;;4881684;29;20137;-68
2022/10/23 08:07:03;;;;;;;18.73;10.23;;;11.90;99.90;;;;;;4880094;29;20085;-68
2022/10/23 08:09:30;;;;;;;15.73;8.10;;;11.80;99.90;;;;;;4864403;29;20069;-68
2022/10/23 08:11:55;;;;;;;22.70;10.25;;;11.80;99.90;;;;;;4859728;29;20053;-69
2022/10/23 08:14:21;;;;;;;14.13;8.77;;;11.90;99.90;;;;;;4880988;29;20041;-73
2022/10/23 08:16:47;;;;;;;13.77;8.20;;;11.90;99.90;;;;;;4880747;29;20128;-72
2022/10/23 08:19:13;;;;;;;15.95;8.43;;;11.90;99.90;;;;;;4880060;29;20105;-72
2022/10/23 08:21:38;;;;;;;14.15;8.75;;;12.20;99.90;;;;;;4880820;29;20073;-72
2022/10/23 08:24:04;;;;;;;13.55;8.48;;;11.90;99.90;;;;;;4879965;29;20049;-77
2022/10/23 08:26:30;;;;;;;12.45;8.48;;;12.00;99.90;;;;;;4880893;29;20104;-75
2022/10/23 08:28:59;;;;;;;12.35;8.20;;;12.20;99.90;;;;;;4881283;29;20438;-81
2022/10/23 08:31:25;;;;;;;13.95;8.43;;;12.00;99.90;;;;;;4864475;29;20569;-76
2022/10/23 08:33:51;;;;;;;9.55;7.25;;;12.00;99.90;;;;;;4880144;29;20406;-76
2022/10/23 08:36:20;;;;;;;11.82;7.38;;;12.20;99.90;;;;;;4879860;29;20045;-79
2022/10/23 08:38:46;;;;;;;14.95;7.88;;;12.10;99.90;;;;;;4880216;29;20045;-77
2022/10/23 08:41:36;;;;;;;14.43;6.28;;;12.00;99.90;;;;;;4864551;29;20056;-76
2022/10/23 08:44:10;;;;;;;9.00;6.07;;;12.10;99.90;;;;;;4879831;29;20056;-75
2022/10/23 08:46:41;;;;;;;10.18;6.22;;;12.20;99.90;;;;;;4879651;29;20084;-80
2022/10/23 08:49:06;;;;;;;9.10;6.03;;;12.50;99.90;;;;;;4880084;29;20056;-76
2022/10/23 08:51:39;;;;;;;11.07;5.72;;;12.40;99.90;;;;;;4879554;29;20057;-72
2022/10/23 08:54:13;;;;;;;11.00;6.43;;;12.30;99.90;;;;;;4880403;29;20041;-76
2022/10/23 08:56:41;;;;;;;13.38;6.30;;;12.30;99.90;;;;;;4879491;29;20056;-74
2022/10/23 08:59:33;;;;;;;8.95;6.13;;;12.40;99.90;;;;;;4879141;29;20049;-73
2022/10/23 09:02:21;;;;;;;7.72;6.35;;;12.40;99.90;;;;;;4880197;29;20394;-73
2022/10/23 09:04:48;;;;;;;10.68;6.45;;;12.40;99.90;;;;;;4879190;29;20052;-73
2022/10/23 09:07:17;;;;;;;11.20;6.20;;;12.50;99.90;;;;;;4880068;29;20049;-73
2022/10/23 09:10:14;;;;;;;9.45;5.97;;;12.60;99.90;;;;;;4878835;29;20056;-73
2022/10/23 09:12:40;;;;;;;10.55;6.25;;;12.60;99.90;;;;;;4879615;29;20045;-75
2022/10/23 09:15:21;;;;;;;11.35;6.55;;;12.70;99.90;;;;;;4879267;29;20053;-76
2022/10/23 09:17:59;;;;;;;10.40;7.28;;;12.70;99.90;;;;;;4879359;29;20117;-72
2022/10/23 09:20:30;;;;;;;11.65;6.65;;;12.70;99.90;;;;;;4879380;29;20406;-75
2022/10/23 09:23:22;;;;;;;11.93;6.57;;;12.80;99.90;;;;;;4880653;29;20048;-75
2022/10/23 09:25:54;;;;;;;10.77;6.07;;;12.70;99.90;;;;;;4873015;29;20076;-74
2022/10/23 09:28:25;;;;;;;12.98;6.40;;;12.90;99.90;;;;;;4878987;29;20053;-76
2022/10/23 09:30:51;;;;;;;11.38;6.65;;;12.90;99.90;;;;;;4879258;29;20055;-77
2022/10/23 09:33:26;;;;;;;13.32;6.55;;;12.90;99.90;;;;;;4878861;29;20045;-76
2022/10/23 09:35:54;;;;;;;11.70;6.55;;;13.30;99.90;;;;;;4880118;29;20060;-78
2022/10/23 09:38:38;;;;;;;9.38;6.38;;;13.20;99.90;;;;;;4862884;29;20060;-76
2022/10/23 09:41:15;;;;;;;11.77;6.72;;;13.00;99.90;;;;;;4879954;29;20465;-74
2022/10/23 09:43:40;;;;;;;11.02;7.38;;;13.10;99.90;;;;;;4879689;29;20048;-73
2022/10/23 09:46:06;;;;;;;9.50;6.60;;;12.90;99.90;;;;;;4878811;29;20049;-74
2022/10/23 09:48:33;;;;;;;12.68;6.80;;;13.30;99.90;;;;;;4879826;29;20406;-74
2022/10/23 09:51:13;;;;;;;9.32;6.93;;;13.40;99.90;;;;;;4879791;29;20056;-71
2022/10/23 09:53:57;;;;;;;10.82;6.85;;;13.20;99.90;;;;;;4879744;29;20124;-73
2022/10/23 09:56:31;;;;;;;12.25;6.78;;;13.40;99.90;;;;;;4879317;29;20092;-71
2022/10/23 09:58:58;;;;;;;12.35;6.13;;;13.50;99.90;;;;;;4879910;29;20088;-72
2022/10/23 10:01:29;;;;;;;11.85;5.75;;;13.60;99.90;;;;;;4879844;29;20041;-74
2022/10/23 10:03:56;;;;;;;9.80;6.40;;;13.50;99.90;;;;;;4878688;29;20124;-72
2022/10/23 10:06:32;;;;;;;9.88;5.82;;;13.60;99.90;;;;;;4879535;29;20060;-71
2022/10/23 10:09:01;;;;;;;9.95;5.60;;;13.60;99.90;;;;;;4879050;29;20137;-71
2022/10/23 10:11:48;;;;;;;11.05;5.70;;;13.60;99.90;;;;;;4879217;29;20509;-75
2022/10/23 10:14:14;;;;;;;10.90;5.88;;;13.60;99.90;;;;;;4879550;29;20057;-74
2022/10/23 10:16:49;;;;;;;10.85;5.50;;;13.80;99.90;;;;;;4878502;29;20104;-73
2022/10/23 10:19:37;;;;;;;11.43;7.65;;;13.70;99.90;;;;;;4879638;29;20056;-72
2022/10/23 10:22:24;;;;;;;10.80;6.13;;;13.70;99.90;;;;;;4879777;29;20041;-74
2022/10/23 10:25:00;;;;;;;8.98;5.70;;;13.80;99.90;;;;;;4879274;29;20051;-72
2022/10/23 10:27:53;;;;;;;8.07;5.90;;;13.80;99.90;;;;;;4877979;29;20117;-74
2022/10/23 10:30:21;;;;;;;8.45;6.10;;;13.90;99.90;;;;;;4879254;29;20154;-73
2022/10/23 10:33:12;;;;;;;9.25;5.97;;;13.90;99.90;;;;;;4879006;29;20059;-72
2022/10/23 10:35:50;;;;;;;10.82;6.82;;;14.20;99.90;;;;;;4879285;29;20053;-75
2022/10/23 10:38:40;;;;;;;9.15;6.40;;;14.10;99.90;;;;;;4878177;29;20136;-73
2022/10/23 10:41:41;;;;;;;11.15;6.38;;;14.20;99.90;;;;;;4878626;29;20049;-71
2022/10/23 10:44:20;;;;;;;8.90;6.05;;;14.30;99.90;;;;;;4879289;29;20192;-71
2022/10/23 10:46:55;;;;;;;8.93;4.97;;;14.10;99.90;;;;;;4879535;29;20110;-71
2022/10/23 10:49:49;;;;;;;9.32;6.13;;;14.00;99.90;;;;;;4878499;29;20410;-75
2022/10/23 10:52:24;;;;;;;7.90;5.47;;;14.40;99.90;;;;;;4871993;29;20112;-73
2022/10/23 10:55:18;;;;;;;9.98;5.65;;;14.60;99.90;;;;;;4879365;29;20132;-71
2022/10/23 10:57:58;;;;;;;7.25;4.93;;;14.30;99.90;;;;;;4878693;29;20495;-72
2022/10/23 11:00:24;;;;;;;9.25;5.25;;;14.40;99.90;;;;;;4893237;29;20131;-74
2022/10/23 11:03:03;;;;;;;7.18;4.50;;;14.20;99.90;;;;;;4877161;29;20512;-72
2022/10/23 11:05:33;;;;;;;6.88;4.68;;;14.70;99.90;;;;;;4878281;29;20461;-71
2022/10/23 11:08:23;;;;;;;7.38;5.43;;;14.50;99.90;;;;;;4880423;29;20053;-73
2022/10/23 11:10:53;;;;;;;8.40;5.50;;;14.50;99.90;;;;;;4881932;29;20052;-72
2022/10/23 11:13:36;;;;;;;10.32;5.63;;;14.50;99.90;;;;;;4881864;29;20053;-74
2022/10/23 11:16:08;;;;;;;;;;;14.40;99.90;;;;;;4881781;29;20048;-70
2022/10/23 11:18:35;;;;;;;9.07;5.10;;;14.50;99.90;;;;;;4880916;29;19935;-70
2022/10/23 11:21:30;;;;;;;8.05;5.10;;;14.50;99.90;;;;;;4880623;29;20123;-70
2022/10/23 11:24:02;;;;;;;8.65;5.35;;;14.60;99.90;;;;;;4880734;29;20060;-72
2022/10/23 11:26:55;;;;;;;8.88;5.35;;;14.50;99.90;;;;;;4880575;29;20053;-71
2022/10/23 11:30:07;;;;;;;10.40;5.55;;;14.40;99.90;;;;;;4886058;29;20049;-71
2022/10/23 11:32:49;;;;;;;7.75;5.47;;;14.60;99.90;;;;;;4877017;29;20053;-72
2022/10/23 11:35:23;;;;;;;8.98;5.50;;;14.70;99.90;;;;;;4896003;29;20520;-73
2022/10/23 11:37:58;;;;;;;7.28;5.10;;;14.90;99.90;;;;;;4881094;29;20060;-73
2022/10/23 11:40:24;;;;;;;8.57;5.18;;;14.70;99.90;;;;;;4881309;29;20049;-70
2022/10/23 11:42:50;;;;;;;8.40;4.45;;;14.80;99.90;;;;;;4864913;29;20045;-72
2022/10/23 11:45:30;;;;;;;7.70;5.07;;;14.40;99.90;;;;;;4881632;29;20053;-72
2022/10/23 11:48:14;;;;;;;8.02;5.03;;;14.50;99.90;;;;;;4881751;29;20049;-72
2022/10/23 11:50:42;;;;;;;9.00;4.82;;;14.80;99.90;;;;;;4880378;29;20061;-73
2022/10/23 11:53:26;;;;;;;10.18;5.00;;;14.90;99.90;;;;;;4880502;29;20060;-73
2022/10/23 11:56:12;;;;;;;8.88;5.03;;;14.80;99.90;;;;;;4880534;29;20409;-73
2022/10/23 11:58:48;;;;;;;6.22;4.10;;;14.80;99.90;;;;;;4881330;29;20068;-73
2022/10/23 12:01:23;;;;;;;7.35;4.63;;;14.90;99.90;;;;;;4881128;29;20402;-73
2022/10/23 12:04:00;;;;;;;9.18;4.43;;;14.80;99.90;;;;;;4881413;29;20409;-76
2022/10/23 12:06:30;;;;;;;10.82;5.43;;;14.70;99.90;;;;;;4880175;29;20053;-78
2022/10/23 12:09:03;;;;;;;7.05;5.00;;;14.90;99.90;;;;;;4880726;29;20064;-73
2022/10/23 12:11:42;;;;;;;13.93;5.93;;;15.00;99.90;;;;;;4880121;29;20117;-72
2022/10/23 12:14:28;;;;;;;10.55;5.20;;;14.90;99.90;;;;;;4864771;29;20049;-73
2022/10/23 12:16:55;;;;;;;9.35;4.55;;;14.80;99.90;;;;;;4864717;29;20089;-73
2022/10/23 12:19:23;;;;;;;7.90;4.45;;;15.00;99.90;;;;;;4864278;29;20051;-73
2022/10/23 12:22:00;;;;;;;7.43;4.82;;;14.90;99.90;;;;;;4879701;29;20128;-73
2022/10/23 12:24:38;;;;;;;7.38;4.75;;;14.90;99.90;;;;;;4879927;29;20096;-74
2022/10/23 12:27:18;;;;;;;7.40;4.35;;;15.00;99.90;;;;;;4879855;29;20524;-75
2022/10/23 12:30:08;;;;;;;7.15;4.80;;;14.80;99.90;;;;;;4880906;29;20405;-73
2022/10/23 12:33:07;;;;;;;5.97;3.63;;;14.70;99.90;;;;;;4880217;29;20128;-75
2022/10/23 12:35:46;;;;;;;7.55;4.22;;;15.10;99.90;;;;;;4880366;29;20185;-74
2022/10/23 12:38:14;;;;;;;4.88;3.78;;;14.80;99.90;;;;;;4880084;29;20532;-76
2022/10/23 12:40:55;;;;;;;7.63;3.72;;;15.00;99.90;;;;;;4879531;29;20052;-70
2022/10/23 12:43:30;;;;;;;5.57;4.05;;;14.80;99.90;;;;;;4880545;29;20044;-75
2022/10/23 12:46:06;;;;;;;9.02;4.30;;;15.20;99.90;;;;;;4880247;29;20084;-75
2022/10/23 12:48:33;;;;;;;6.05;4.03;;;15.10;99.90;;;;;;4879146;29;20649;-74
2022/10/23 12:50:58;;;;;;;8.02;4.30;;;15.30;99.90;;;;;;4877844;29;20455;-73
2022/10/23 12:53:24;;;;;;;8.27;4.50;;;15.10;99.90;;;;;;4877635;29;20060;-74
2022/10/23 12:55:53;;;;;;;10.70;4.03;;;15.00;99.90;;;;;;4868733;29;20056;-74